createdAt,value
2022-07-28T00:00:40.494Z,0.00
2022-07-28T00:01:40.521Z,0.00
2022-07-28T00:02:40.494Z,0.00
2022-07-28T00:03:40.486Z,0.00
2022-07-28T00:04:40.451Z,0.00
2022-07-28T00:05:40.445Z,0.00
2022-07-28T00:06:40.453Z,0.00
2022-07-28T00:07:40.447Z,0.00
2022-07-28T00:08:40.418Z,0.00
2022-07-28T00:09:40.402Z,0.00
2022-07-28T00:10:40.418Z,0.00
2022-07-28T00:11:54.329Z,0.00
2022-07-28T00:12:40.363Z,0.00
2022-07-28T00:13:40.363Z,0.00
2022-07-28T00:14:40.406Z,0.00
2022-07-28T00:15:40.333Z,0.00
2022-07-28T00:16:40.498Z,0.00
2022-07-28T00:17:40.319Z,0.00
2022-07-28T00:18:40.296Z,0.00
2022-07-28T00:19:40.293Z,0.00
2022-07-28T00:20:40.272Z,0.00
2022-07-28T00:21:40.323Z,0.00
2022-07-28T00:22:40.266Z,0.00
2022-07-28T00:23:40.246Z,0.00
2022-07-28T00:24:40.269Z,0.00
2022-07-28T00:25:40.244Z,0.00
2022-07-28T00:26:40.241Z,0.00
2022-07-28T00:27:40.203Z,0.00
2022-07-28T00:28:40.187Z,0.00
2022-07-28T00:29:49.175Z,0.00
2022-07-28T00:30:40.172Z,0.00
2022-07-28T00:31:40.231Z,0.00
2022-07-28T00:32:40.152Z,0.00
2022-07-28T00:33:40.266Z,0.00
2022-07-28T00:34:40.735Z,0.00
2022-07-28T00:35:40.107Z,0.00
2022-07-28T00:36:40.129Z,0.00
2022-07-28T00:37:40.220Z,0.00
2022-07-28T00:38:43.837Z,0.00
2022-07-28T00:39:40.096Z,0.00
2022-07-28T00:40:40.063Z,0.00
2022-07-28T00:41:40.066Z,0.00
2022-07-28T00:42:40.059Z,0.00
2022-07-28T00:43:40.026Z,0.00
2022-07-28T00:44:40.008Z,0.00
2022-07-28T00:45:39.995Z,0.00
2022-07-28T00:46:40.075Z,0.00
2022-07-28T00:47:39.980Z,0.00
2022-07-28T00:48:40.132Z,0.00
2022-07-28T00:49:39.961Z,0.00
2022-07-28T00:50:39.959Z,0.00
2022-07-28T00:51:39.950Z,0.00
2022-07-28T00:52:39.968Z,0.00
2022-07-28T00:53:39.923Z,0.00
2022-07-28T00:54:39.910Z,0.00
2022-07-28T00:56:05.766Z,0.00
2022-07-28T00:56:39.897Z,0.00
2022-07-28T00:57:39.857Z,0.00
2022-07-28T00:58:39.858Z,0.00
2022-07-28T00:59:39.840Z,0.00
2022-07-28T01:00:39.838Z,0.00
2022-07-28T01:01:39.949Z,0.00
2022-07-28T01:02:39.981Z,0.00
2022-07-28T01:03:39.790Z,0.00
2022-07-28T01:04:39.791Z,0.00
2022-07-28T01:05:43.482Z,0.00
2022-07-28T01:06:39.793Z,0.00
2022-07-28T01:07:39.746Z,0.00
2022-07-28T01:08:39.744Z,0.00
2022-07-28T01:09:39.753Z,0.00
2022-07-28T01:10:39.737Z,0.00
2022-07-28T01:11:42.886Z,0.00
2022-07-28T01:12:39.704Z,0.00
2022-07-28T01:13:39.697Z,0.00
2022-07-28T01:14:39.676Z,0.00
2022-07-28T01:15:39.731Z,0.00
2022-07-28T01:16:39.695Z,0.00
2022-07-28T01:17:39.758Z,0.00
2022-07-28T01:18:39.628Z,0.00
2022-07-28T01:19:39.734Z,0.00
2022-07-28T01:20:39.624Z,0.00
2022-07-28T01:21:39.615Z,0.00
2022-07-28T01:22:39.592Z,0.00
2022-07-28T01:23:39.572Z,0.00
2022-07-28T01:24:39.577Z,0.00
2022-07-28T01:25:39.576Z,0.00
2022-07-28T01:26:39.582Z,0.00
2022-07-28T01:27:39.524Z,0.00
2022-07-28T01:28:39.526Z,0.00
2022-07-28T01:29:39.538Z,0.00
2022-07-28T01:30:39.534Z,0.00
2022-07-28T01:31:39.606Z,0.00
2022-07-28T01:32:39.493Z,0.00
2022-07-28T01:33:39.526Z,0.00
2022-07-28T01:34:39.467Z,0.00
2022-07-28T01:35:39.454Z,0.00
2022-07-28T01:36:39.446Z,0.00
2022-07-28T01:37:39.441Z,0.00
2022-07-28T01:38:39.476Z,0.00
2022-07-28T01:39:39.409Z,0.00
2022-07-28T01:40:39.394Z,0.00
2022-07-28T01:41:39.401Z,0.00
2022-07-28T01:42:39.394Z,0.00
2022-07-28T01:43:39.361Z,0.00
2022-07-28T01:44:39.346Z,0.00
2022-07-28T01:45:39.568Z,0.00
2022-07-28T01:46:39.354Z,0.00
2022-07-28T01:47:39.335Z,0.00
2022-07-28T01:48:39.363Z,0.00
2022-07-28T01:49:39.380Z,0.00
2022-07-28T01:50:39.277Z,0.00
2022-07-28T01:51:39.314Z,0.00
2022-07-28T01:52:39.302Z,0.00
2022-07-28T01:53:39.244Z,0.00
2022-07-28T01:54:39.239Z,0.00
2022-07-28T01:55:39.237Z,0.00
2022-07-28T01:56:39.236Z,0.00
2022-07-28T01:57:39.236Z,0.00
2022-07-28T01:58:39.213Z,0.00
2022-07-28T01:59:39.196Z,0.00
2022-07-28T02:00:39.199Z,0.00
2022-07-28T02:01:39.254Z,0.00
2022-07-28T02:02:39.160Z,0.00
2022-07-28T02:03:39.143Z,0.00
2022-07-28T02:04:39.165Z,0.00
2022-07-28T02:05:39.126Z,0.00
2022-07-28T02:06:39.190Z,0.00
2022-07-28T02:07:39.095Z,0.00
2022-07-28T02:08:39.084Z,0.00
2022-07-28T02:09:39.183Z,0.00
2022-07-28T02:10:39.069Z,0.00
2022-07-28T02:11:39.101Z,0.00
2022-07-28T02:12:39.063Z,0.00
2022-07-28T02:13:39.031Z,0.00
2022-07-28T02:14:39.028Z,0.00
2022-07-28T02:15:39.055Z,0.00
2022-07-28T02:16:39.083Z,0.00
2022-07-28T02:17:39.004Z,0.00
2022-07-28T02:18:38.974Z,0.00
2022-07-28T02:19:38.963Z,0.00
2022-07-28T02:20:38.943Z,0.00
2022-07-28T02:21:38.935Z,0.00
2022-07-28T02:22:38.947Z,0.00
2022-07-28T02:23:38.919Z,0.00
2022-07-28T02:24:38.903Z,0.00
2022-07-28T02:25:38.899Z,0.00
2022-07-28T02:26:38.885Z,0.00
2022-07-28T02:27:38.897Z,0.00
2022-07-28T02:28:38.882Z,0.00
2022-07-28T02:29:50.896Z,0.00
2022-07-28T02:30:38.948Z,0.00
2022-07-28T02:31:40.528Z,0.00
2022-07-28T02:32:38.842Z,0.00
2022-07-28T02:33:58.534Z,0.00
2022-07-28T02:34:38.860Z,0.00
2022-07-28T02:35:38.789Z,0.00
2022-07-28T02:36:39.003Z,0.00
2022-07-28T02:37:38.834Z,0.00
2022-07-28T02:38:38.761Z,0.00
2022-07-28T02:39:38.779Z,0.00
2022-07-28T02:40:38.821Z,0.00
2022-07-28T02:41:38.714Z,0.00
2022-07-28T02:42:38.863Z,0.00
2022-07-28T02:43:48.988Z,0.00
2022-07-28T02:44:38.728Z,0.00
2022-07-28T02:45:38.694Z,0.00
2022-07-28T02:46:38.738Z,0.00
2022-07-28T02:47:38.712Z,0.00
2022-07-28T02:48:38.783Z,0.00
2022-07-28T02:49:38.633Z,0.00
2022-07-28T02:50:38.692Z,0.00
2022-07-28T02:51:38.603Z,0.00
2022-07-28T02:52:38.618Z,0.00
2022-07-28T02:53:38.581Z,0.00
2022-07-28T02:54:38.679Z,0.00
2022-07-28T02:55:38.577Z,0.00
2022-07-28T02:56:38.571Z,0.00
2022-07-28T02:57:38.558Z,0.00
2022-07-28T02:58:38.586Z,0.00
2022-07-28T02:59:38.516Z,0.00
2022-07-28T03:00:38.549Z,0.00
2022-07-28T03:01:38.674Z,0.00
2022-07-28T03:02:38.509Z,0.00
2022-07-28T03:03:43.772Z,0.00
2022-07-28T03:04:38.518Z,0.00
2022-07-28T03:05:38.484Z,0.00
2022-07-28T03:06:38.469Z,0.00
2022-07-28T03:07:46.516Z,0.00
2022-07-28T03:08:38.433Z,0.00
2022-07-28T03:09:38.410Z,0.00
2022-07-28T03:10:38.432Z,0.00
2022-07-28T03:11:38.393Z,4.00
2022-07-28T03:12:38.431Z,4.00
2022-07-28T03:13:38.393Z,0.00
2022-07-28T03:14:38.379Z,0.00
2022-07-28T03:15:38.352Z,0.00
2022-07-28T03:16:38.420Z,4.00
2022-07-28T03:17:38.382Z,4.00
2022-07-28T03:18:38.308Z,0.00
2022-07-28T03:19:38.370Z,4.00
2022-07-28T03:20:38.301Z,4.00
2022-07-28T03:21:38.354Z,4.00
2022-07-28T03:22:38.295Z,4.00
2022-07-28T03:23:38.295Z,4.00
2022-07-28T03:24:38.246Z,8.00
2022-07-28T03:25:38.221Z,8.00
2022-07-28T03:26:38.220Z,8.00
2022-07-28T03:27:38.226Z,8.00
2022-07-28T03:28:38.223Z,8.00
2022-07-28T03:29:38.179Z,12.00
2022-07-28T03:30:38.253Z,12.00
2022-07-28T03:31:38.163Z,16.00
2022-07-28T03:32:38.166Z,16.00
2022-07-28T03:33:38.186Z,20.00
2022-07-28T03:34:38.126Z,20.00
2022-07-28T03:35:38.118Z,20.00
2022-07-28T03:36:38.119Z,24.00
2022-07-28T03:37:38.131Z,24.00
2022-07-28T03:38:38.077Z,28.00
2022-07-28T03:39:38.073Z,32.00
2022-07-28T03:40:38.073Z,32.00
2022-07-28T03:41:38.043Z,36.00
2022-07-28T03:42:38.060Z,44.00
2022-07-28T03:43:38.031Z,44.00
2022-07-28T03:44:38.048Z,52.00
2022-07-28T03:45:40.859Z,52.00
2022-07-28T03:46:38.037Z,56.00
2022-07-28T03:47:38.034Z,60.00
2022-07-28T03:48:38.021Z,68.00
2022-07-28T03:49:37.961Z,68.00
2022-07-28T03:50:37.939Z,72.00
2022-07-28T03:51:37.990Z,76.00
2022-07-28T03:52:37.957Z,80.00
2022-07-28T03:53:37.919Z,84.00
2022-07-28T03:54:37.898Z,88.00
2022-07-28T03:55:37.901Z,92.00
2022-07-28T03:56:37.883Z,96.00
2022-07-28T03:57:37.890Z,100.00
2022-07-28T03:58:37.959Z,100.00
2022-07-28T03:59:37.846Z,108.00
2022-07-28T04:00:37.828Z,112.00
2022-07-28T04:01:37.900Z,116.00
2022-07-28T04:02:37.912Z,120.00
2022-07-28T04:03:43.572Z,124.00
2022-07-28T04:04:37.793Z,132.00
2022-07-28T04:05:37.800Z,140.00
2022-07-28T04:06:37.774Z,144.00
2022-07-28T04:07:37.833Z,152.00
2022-07-28T04:08:37.762Z,152.00
2022-07-28T04:09:37.748Z,160.00
2022-07-28T04:10:37.815Z,168.00
2022-07-28T04:11:37.712Z,172.00
2022-07-28T04:12:37.739Z,180.00
2022-07-28T04:13:37.746Z,188.00
2022-07-28T04:14:37.679Z,196.00
2022-07-28T04:15:37.713Z,200.00
2022-07-28T04:16:37.719Z,208.00
2022-07-28T04:17:37.662Z,220.00
2022-07-28T04:18:37.638Z,228.00
2022-07-28T04:19:37.620Z,236.00
2022-07-28T04:20:37.696Z,244.00
2022-07-28T04:21:37.609Z,256.00
2022-07-28T04:22:37.602Z,260.00
2022-07-28T04:23:37.652Z,272.00
2022-07-28T04:24:37.573Z,284.00
2022-07-28T04:25:37.568Z,292.00
2022-07-28T04:26:37.545Z,300.00
2022-07-28T04:27:37.543Z,308.00
2022-07-28T04:28:37.524Z,320.00
2022-07-28T04:29:37.517Z,332.00
2022-07-28T04:30:39.553Z,340.00
2022-07-28T04:31:37.496Z,356.00
2022-07-28T04:32:37.529Z,368.00
2022-07-28T04:33:37.487Z,380.00
2022-07-28T04:34:37.456Z,388.00
2022-07-28T04:35:37.446Z,404.00
2022-07-28T04:36:37.529Z,416.00
2022-07-28T04:37:37.521Z,432.00
2022-07-28T04:38:37.402Z,448.00
2022-07-28T04:39:37.444Z,472.00
2022-07-28T04:40:37.412Z,488.00
2022-07-28T04:41:37.374Z,508.00
2022-07-28T04:42:37.377Z,540.00
2022-07-28T04:43:37.361Z,568.00
2022-07-28T04:44:37.338Z,588.00
2022-07-28T04:45:37.468Z,600.00
2022-07-28T04:46:37.445Z,612.00
2022-07-28T04:47:37.341Z,636.00
2022-07-28T04:48:37.324Z,652.00
2022-07-28T04:49:37.296Z,660.00
2022-07-28T04:50:37.322Z,692.00
2022-07-28T04:51:37.353Z,720.00
2022-07-28T04:52:37.276Z,748.00
2022-07-28T04:53:37.359Z,776.00
2022-07-28T04:54:37.232Z,788.00
2022-07-28T04:55:37.215Z,812.00
2022-07-28T04:56:37.209Z,828.00
2022-07-28T04:57:37.230Z,848.00
2022-07-28T04:58:37.180Z,860.00
2022-07-28T04:59:37.175Z,876.00
2022-07-28T05:00:37.166Z,884.00
2022-07-28T05:01:37.252Z,892.00
2022-07-28T05:02:37.249Z,896.00
2022-07-28T05:03:37.141Z,892.00
2022-07-28T05:04:37.180Z,904.00
2022-07-28T05:05:37.103Z,928.00
2022-07-28T05:06:37.085Z,948.00
2022-07-28T05:07:37.213Z,972.00
2022-07-28T05:08:37.068Z,1004.00
2022-07-28T05:09:37.062Z,1036.00
2022-07-28T05:10:37.057Z,1072.00
2022-07-28T05:11:37.037Z,1096.00
2022-07-28T05:12:37.087Z,1120.00
2022-07-28T05:13:37.024Z,1140.00
2022-07-28T05:14:37.010Z,1156.00
2022-07-28T05:15:37.065Z,1172.00
2022-07-28T05:16:37.047Z,1192.00
2022-07-28T05:17:37.016Z,1204.00
2022-07-28T05:18:36.960Z,1224.00
2022-07-28T05:19:36.964Z,1240.00
2022-07-28T05:20:36.930Z,1264.00
2022-07-28T05:21:36.934Z,1292.00
2022-07-28T05:22:36.928Z,1316.00
2022-07-28T05:23:36.903Z,1344.00
2022-07-28T05:24:36.972Z,1372.00
2022-07-28T05:25:36.933Z,1404.00
2022-07-28T05:26:36.870Z,1436.00
2022-07-28T05:27:36.885Z,1464.00
2022-07-28T05:28:36.862Z,1492.00
2022-07-28T05:29:47.840Z,1524.00
2022-07-28T05:30:36.846Z,1552.00
2022-07-28T05:31:36.873Z,1588.00
2022-07-28T05:32:36.814Z,1616.00
2022-07-28T05:33:36.783Z,1640.00
2022-07-28T05:34:36.793Z,1676.00
2022-07-28T05:35:36.778Z,1692.00
2022-07-28T05:36:36.808Z,1716.00
2022-07-28T05:37:36.823Z,1720.00
2022-07-28T05:38:36.746Z,1744.00
2022-07-28T05:39:36.727Z,1708.00
2022-07-28T05:40:36.720Z,1732.00
2022-07-28T05:41:36.708Z,1784.00
2022-07-28T05:42:36.718Z,1820.00
2022-07-28T05:43:36.675Z,1844.00
2022-07-28T05:44:38.385Z,1880.00
2022-07-28T05:45:36.712Z,1924.00
2022-07-28T05:46:36.651Z,1928.00
2022-07-28T05:47:36.659Z,1928.00
2022-07-28T05:48:36.708Z,1976.00
2022-07-28T05:49:36.609Z,1988.00
2022-07-28T05:50:36.604Z,1992.00
2022-07-28T05:51:41.289Z,1988.00
2022-07-28T05:52:36.636Z,2000.00
2022-07-28T05:53:36.577Z,1996.00
2022-07-28T05:54:36.575Z,1964.00
2022-07-28T05:55:36.538Z,1964.00
2022-07-28T05:56:36.554Z,1932.00
2022-07-28T05:57:36.579Z,1928.00
2022-07-28T05:58:36.511Z,1908.00
2022-07-28T05:59:36.496Z,1900.00
2022-07-28T06:00:36.504Z,1896.00
2022-07-28T06:01:36.568Z,1880.00
2022-07-28T06:02:36.586Z,1876.00
2022-07-28T06:03:41.806Z,1880.00
2022-07-28T06:04:37.107Z,1840.00
2022-07-28T06:05:36.436Z,1848.00
2022-07-28T06:06:36.443Z,1852.00
2022-07-28T06:07:43.148Z,1452.00
2022-07-28T06:08:36.409Z,1508.00
2022-07-28T06:09:36.393Z,1288.00
2022-07-28T06:10:36.374Z,1280.00
2022-07-28T06:11:36.367Z,1304.00
2022-07-28T06:12:36.385Z,1352.00
2022-07-28T06:13:36.352Z,1312.00
2022-07-28T06:14:36.343Z,1288.00
2022-07-28T06:15:36.329Z,1296.00
2022-07-28T06:16:36.345Z,1332.00
2022-07-28T06:17:36.310Z,1384.00
2022-07-28T06:18:36.288Z,1396.00
2022-07-28T06:19:36.287Z,1416.00
2022-07-28T06:20:36.270Z,1548.00
2022-07-28T06:21:36.291Z,1612.00
2022-07-28T06:22:36.330Z,1904.00
2022-07-28T06:23:36.226Z,1864.00
2022-07-28T06:24:36.229Z,1844.00
2022-07-28T06:25:36.221Z,1812.00
2022-07-28T06:26:36.379Z,1768.00
2022-07-28T06:27:36.217Z,1744.00
2022-07-28T06:28:36.176Z,1828.00
2022-07-28T06:29:36.170Z,1944.00
2022-07-28T06:30:36.154Z,1876.00
2022-07-28T06:31:36.237Z,1864.00
2022-07-28T06:32:36.155Z,1852.00
2022-07-28T06:33:36.138Z,1892.00
2022-07-28T06:34:36.103Z,2012.00
2022-07-28T06:35:44.994Z,1944.00
2022-07-28T06:36:36.127Z,1984.00
2022-07-28T06:37:36.115Z,1852.00
2022-07-28T06:38:36.061Z,1740.00
2022-07-28T06:39:36.064Z,1804.00
2022-07-28T06:40:36.038Z,1736.00
2022-07-28T06:41:36.025Z,1652.00
2022-07-28T06:42:36.024Z,1640.00
2022-07-28T06:43:39.064Z,1736.00
2022-07-28T06:44:57.508Z,1760.00
2022-07-28T06:45:35.987Z,1736.00
2022-07-28T06:46:36.037Z,1664.00
2022-07-28T06:47:35.972Z,1792.00
2022-07-28T06:48:35.984Z,1840.00
2022-07-28T06:49:35.970Z,1868.00
2022-07-28T06:50:35.917Z,1748.00
2022-07-28T06:51:38.307Z,1848.00
2022-07-28T06:52:35.915Z,1840.00
2022-07-28T06:53:35.902Z,2040.00
2022-07-28T06:54:35.893Z,2008.00
2022-07-28T06:55:36.136Z,2024.00
2022-07-28T06:56:35.845Z,2092.00
2022-07-28T06:57:35.867Z,2172.00
2022-07-28T06:58:35.827Z,2220.00
2022-07-28T06:59:35.830Z,2072.00
2022-07-28T07:00:35.887Z,1764.00
2022-07-28T07:01:35.837Z,1748.00
2022-07-28T07:02:35.803Z,1956.00
2022-07-28T07:03:35.782Z,1992.00
2022-07-28T07:04:35.875Z,1968.00
2022-07-28T07:05:35.796Z,2064.00
2022-07-28T07:06:35.743Z,2072.00
2022-07-28T07:07:39.717Z,2012.00
2022-07-28T07:08:35.759Z,2028.00
2022-07-28T07:09:35.740Z,2028.00
2022-07-28T07:10:35.698Z,2008.00
2022-07-28T07:11:35.699Z,2104.00
2022-07-28T07:12:35.697Z,1920.00
2022-07-28T07:13:35.697Z,1984.00
2022-07-28T07:14:35.686Z,2112.00
2022-07-28T07:15:35.731Z,1976.00
2022-07-28T07:16:35.681Z,1944.00
2022-07-28T07:17:35.742Z,2120.00
2022-07-28T07:18:35.617Z,2176.00
2022-07-28T07:19:35.605Z,2180.00
2022-07-28T07:20:35.616Z,2108.00
2022-07-28T07:21:35.591Z,2120.00
2022-07-28T07:22:35.715Z,2116.00
2022-07-28T07:23:35.586Z,2164.00
2022-07-28T07:24:35.560Z,2040.00
2022-07-28T07:25:35.606Z,2128.00
2022-07-28T07:26:35.571Z,2144.00
2022-07-28T07:27:35.563Z,2356.00
2022-07-28T07:28:35.503Z,2276.00
2022-07-28T07:29:35.486Z,2132.00
2022-07-28T07:30:35.496Z,2332.00
2022-07-28T07:31:35.582Z,2480.00
2022-07-28T07:32:35.485Z,2412.00
2022-07-28T07:33:35.442Z,2224.00
2022-07-28T07:34:35.556Z,2416.00
2022-07-28T07:35:35.576Z,2436.00
2022-07-28T07:36:35.471Z,2384.00
2022-07-28T07:37:35.420Z,2460.00
2022-07-28T07:38:35.539Z,2472.00
2022-07-28T07:39:35.384Z,2480.00
2022-07-28T07:40:35.384Z,2260.00
2022-07-28T07:41:35.369Z,2060.00
2022-07-28T07:42:35.367Z,1864.00
2022-07-28T07:43:35.381Z,2152.00
2022-07-28T07:44:35.355Z,2188.00
2022-07-28T07:45:35.307Z,2488.00
2022-07-28T07:46:35.403Z,2456.00
2022-07-28T07:47:35.330Z,2448.00
2022-07-28T07:48:35.419Z,2400.00
2022-07-28T07:49:45.539Z,2580.00
2022-07-28T07:50:35.272Z,2664.00
2022-07-28T07:51:35.247Z,2504.00
2022-07-28T07:52:35.259Z,2508.00
2022-07-28T07:53:35.299Z,2632.00
2022-07-28T07:54:35.230Z,2624.00
2022-07-28T07:55:37.716Z,2524.00
2022-07-28T07:56:35.202Z,2664.00
2022-07-28T07:57:35.204Z,2800.00
2022-07-28T07:58:35.272Z,2848.00
2022-07-28T07:59:35.195Z,2852.00
2022-07-28T08:00:35.167Z,2876.00
2022-07-28T08:01:35.187Z,2860.00
2022-07-28T08:02:35.150Z,2856.00
2022-07-28T08:03:35.322Z,2872.00
2022-07-28T08:04:37.200Z,2852.00
2022-07-28T08:05:36.399Z,2868.00
2022-07-28T08:06:35.833Z,3024.00
2022-07-28T08:07:35.104Z,3128.00
2022-07-28T08:08:41.682Z,3148.00
2022-07-28T08:09:35.050Z,3108.00
2022-07-28T08:10:35.055Z,3096.00
2022-07-28T08:11:35.025Z,3116.00
2022-07-28T08:12:35.066Z,3096.00
2022-07-28T08:13:35.041Z,3144.00
2022-07-28T08:14:35.008Z,3180.00
2022-07-28T08:15:35.030Z,3200.00
2022-07-28T08:16:35.030Z,3196.00
2022-07-28T08:17:35.049Z,3228.00
2022-07-28T08:18:34.951Z,3228.00
2022-07-28T08:19:34.942Z,3132.00
2022-07-28T08:20:34.927Z,3064.00
2022-07-28T08:21:34.930Z,2444.00
2022-07-28T08:22:34.945Z,2508.00
2022-07-28T08:23:34.885Z,2784.00
2022-07-28T08:24:35.124Z,3100.00
2022-07-28T08:25:34.875Z,3200.00
2022-07-28T08:26:34.899Z,2788.00
2022-07-28T08:27:34.867Z,3072.00
2022-07-28T08:28:34.825Z,2912.00
2022-07-28T08:29:34.847Z,3108.00
2022-07-28T08:30:34.836Z,2672.00
2022-07-28T08:31:35.408Z,3376.00
2022-07-28T08:32:34.818Z,3292.00
2022-07-28T08:33:34.793Z,3336.00
2022-07-28T08:34:35.103Z,2832.00
2022-07-28T08:35:35.715Z,3300.00
2022-07-28T08:36:34.772Z,2540.00
2022-07-28T08:37:34.761Z,2968.00
2022-07-28T08:38:34.741Z,3204.00
2022-07-28T08:39:34.728Z,2568.00
2022-07-28T08:40:34.714Z,2712.00
2022-07-28T08:41:34.706Z,2764.00
2022-07-28T08:42:34.709Z,3080.00
2022-07-28T08:43:34.683Z,3112.00
2022-07-28T08:44:34.666Z,2724.00
2022-07-28T08:45:37.007Z,3132.00
2022-07-28T08:46:34.752Z,3112.00
2022-07-28T08:47:45.763Z,3220.00
2022-07-28T08:48:34.663Z,3288.00
2022-07-28T08:49:34.611Z,3124.00
2022-07-28T08:50:34.587Z,3324.00
2022-07-28T08:51:34.623Z,3224.00
2022-07-28T08:52:34.593Z,3288.00
2022-07-28T08:53:34.559Z,3356.00
2022-07-28T08:54:34.579Z,3324.00
2022-07-28T08:55:34.558Z,3284.00
2022-07-28T08:56:34.543Z,3216.00
2022-07-28T08:57:34.544Z,3164.00
2022-07-28T08:58:34.499Z,3208.00
2022-07-28T08:59:34.486Z,3284.00
2022-07-28T09:00:34.504Z,3176.00
2022-07-28T09:01:38.991Z,3064.00
2022-07-28T09:02:34.652Z,3204.00
2022-07-28T09:03:34.495Z,3172.00
2022-07-28T09:04:34.437Z,3144.00
2022-07-28T09:05:34.422Z,3192.00
2022-07-28T09:06:34.415Z,3104.00
2022-07-28T09:07:34.418Z,3180.00
2022-07-28T09:08:34.411Z,3160.00
2022-07-28T09:09:34.398Z,3072.00
2022-07-28T09:10:34.373Z,2988.00
2022-07-28T09:11:34.381Z,2916.00
2022-07-28T09:12:34.369Z,3012.00
2022-07-28T09:13:34.333Z,3076.00
2022-07-28T09:14:34.332Z,3100.00
2022-07-28T09:15:34.346Z,3156.00
2022-07-28T09:16:34.325Z,3148.00
2022-07-28T09:17:34.308Z,3188.00
2022-07-28T09:18:34.285Z,3188.00
2022-07-28T09:19:35.698Z,3208.00
2022-07-28T09:20:34.285Z,3140.00
2022-07-28T09:21:34.248Z,3172.00
2022-07-28T09:22:34.272Z,3112.00
2022-07-28T09:23:43.976Z,3016.00
2022-07-28T09:24:34.228Z,3140.00
2022-07-28T09:25:34.295Z,3092.00
2022-07-28T09:26:34.230Z,3112.00
2022-07-28T09:27:34.228Z,3156.00
2022-07-28T09:28:34.228Z,3176.00
2022-07-28T09:29:34.161Z,3160.00
2022-07-28T09:30:34.166Z,3188.00
2022-07-28T09:31:34.269Z,3224.00
2022-07-28T09:32:34.185Z,3252.00
2022-07-28T09:33:42.175Z,3176.00
2022-07-28T09:34:34.156Z,3188.00
2022-07-28T09:35:34.087Z,3180.00
2022-07-28T09:36:34.095Z,3268.00
2022-07-28T09:37:34.094Z,3232.00
2022-07-28T09:38:34.052Z,3276.00
2022-07-28T09:39:34.042Z,3048.00
2022-07-28T09:40:34.039Z,3056.00
2022-07-28T09:41:34.028Z,3124.00
2022-07-28T09:42:34.054Z,3252.00
2022-07-28T09:43:33.990Z,3280.00
2022-07-28T09:44:33.992Z,3280.00
2022-07-28T09:45:33.986Z,3276.00
2022-07-28T09:46:34.198Z,3248.00
2022-07-28T09:47:34.261Z,3304.00
2022-07-28T09:48:34.099Z,3276.00
2022-07-28T09:49:34.141Z,3196.00
2022-07-28T09:50:33.931Z,3100.00
2022-07-28T09:51:33.947Z,2928.00
2022-07-28T09:52:33.930Z,3156.00
2022-07-28T09:53:33.904Z,3080.00
2022-07-28T09:54:38.723Z,3176.00
2022-07-28T09:55:33.934Z,3340.00
2022-07-28T09:56:33.906Z,3340.00
2022-07-28T09:57:33.861Z,3448.00
2022-07-28T09:58:33.878Z,2884.00
2022-07-28T09:59:33.916Z,2748.00
2022-07-28T10:00:33.818Z,3372.00
2022-07-28T10:01:36.754Z,2704.00
2022-07-28T10:02:33.857Z,3408.00
2022-07-28T10:03:33.775Z,3672.00
2022-07-28T10:04:33.777Z,3676.00
2022-07-28T10:05:33.857Z,3684.00
2022-07-28T10:06:33.767Z,3716.00
2022-07-28T10:07:33.762Z,2720.00
2022-07-28T10:08:33.720Z,2964.00
2022-07-28T10:09:33.741Z,2100.00
2022-07-28T10:10:33.732Z,2316.00
2022-07-28T10:11:36.509Z,2920.00
2022-07-28T10:12:33.699Z,2452.00
2022-07-28T10:13:33.690Z,3320.00
2022-07-28T10:14:33.681Z,2540.00
2022-07-28T10:15:33.809Z,2404.00
2022-07-28T10:16:33.684Z,2896.00
2022-07-28T10:17:33.769Z,3708.00
2022-07-28T10:18:33.618Z,3664.00
2022-07-28T10:19:33.641Z,3704.00
2022-07-28T10:20:33.627Z,3696.00
2022-07-28T10:21:33.590Z,3448.00
2022-07-28T10:22:33.627Z,3608.00
2022-07-28T10:23:33.565Z,3376.00
2022-07-28T10:24:33.559Z,2744.00
2022-07-28T10:25:33.559Z,2568.00
2022-07-28T10:26:33.628Z,3272.00
2022-07-28T10:27:33.580Z,3408.00
2022-07-28T10:28:33.507Z,3336.00
2022-07-28T10:29:33.513Z,3016.00
2022-07-28T10:30:33.556Z,3684.00
2022-07-28T10:31:33.491Z,3752.00
2022-07-28T10:32:33.516Z,3920.00
2022-07-28T10:33:33.451Z,3208.00
2022-07-28T10:34:33.461Z,3228.00
2022-07-28T10:35:33.432Z,3908.00
2022-07-28T10:36:33.457Z,3932.00
2022-07-28T10:37:33.431Z,3920.00
2022-07-28T10:38:33.407Z,3864.00
2022-07-28T10:39:33.394Z,3904.00
2022-07-28T10:40:33.413Z,3276.00
2022-07-28T10:41:33.389Z,3632.00
2022-07-28T10:42:33.405Z,3356.00
2022-07-28T10:43:33.374Z,2432.00
2022-07-28T10:44:33.339Z,3860.00
2022-07-28T10:45:55.094Z,2716.00
2022-07-28T10:46:33.393Z,4200.00
2022-07-28T10:47:35.959Z,1816.00
2022-07-28T10:48:33.376Z,1636.00
2022-07-28T10:49:33.504Z,1636.00
2022-07-28T10:50:33.307Z,1684.00
2022-07-28T10:51:33.255Z,2052.00
2022-07-28T10:52:50.545Z,2436.00
2022-07-28T10:53:33.254Z,2196.00
2022-07-28T10:54:33.284Z,2540.00
2022-07-28T10:55:33.232Z,3652.00
2022-07-28T10:56:33.230Z,3756.00
2022-07-28T10:57:33.207Z,4088.00
2022-07-28T10:58:33.178Z,4032.00
2022-07-28T10:59:33.183Z,3936.00
2022-07-28T11:00:52.844Z,3836.00
2022-07-28T11:01:48.408Z,3780.00
2022-07-28T11:02:33.368Z,3736.00
2022-07-28T11:03:33.320Z,3668.00
2022-07-28T11:04:33.200Z,3624.00
2022-07-28T11:05:33.172Z,3652.00
2022-07-28T11:06:33.100Z,3600.00
2022-07-28T11:07:33.109Z,3564.00
2022-07-28T11:08:33.077Z,3572.00
2022-07-28T11:09:33.179Z,3568.00
2022-07-28T11:10:33.089Z,3564.00
2022-07-28T11:11:33.040Z,3600.00
2022-07-28T11:12:33.109Z,3600.00
2022-07-28T11:13:33.321Z,3484.00
2022-07-28T11:14:33.051Z,3620.00
2022-07-28T11:15:33.000Z,3592.00
2022-07-28T11:16:36.683Z,3524.00
2022-07-28T11:17:33.763Z,3552.00
2022-07-28T11:18:32.972Z,3612.00
2022-07-28T11:19:40.740Z,3596.00
2022-07-28T11:20:32.945Z,3580.00
2022-07-28T11:21:40.954Z,1472.00
2022-07-28T11:22:33.217Z,3052.00
2022-07-28T11:23:32.899Z,3752.00
2022-07-28T11:24:32.916Z,3600.00
2022-07-28T11:25:32.950Z,3656.00
2022-07-28T11:26:32.879Z,3668.00
2022-07-28T11:27:32.883Z,3528.00
2022-07-28T11:28:32.872Z,3664.00
2022-07-28T11:29:32.866Z,3596.00
2022-07-28T11:30:33.056Z,3644.00
2022-07-28T11:31:32.857Z,3720.00
2022-07-28T11:32:42.282Z,3628.00
2022-07-28T11:33:32.855Z,3616.00
2022-07-28T11:34:32.795Z,3544.00
2022-07-28T11:35:32.861Z,3616.00
2022-07-28T11:36:32.795Z,3572.00
2022-07-28T11:37:32.790Z,3560.00
2022-07-28T11:38:32.779Z,3620.00
2022-07-28T11:39:39.869Z,3552.00
2022-07-28T11:40:32.736Z,3552.00
2022-07-28T11:41:32.762Z,3580.00
2022-07-28T11:42:33.208Z,3564.00
2022-07-28T11:43:36.578Z,3620.00
2022-07-28T11:44:32.696Z,3544.00
2022-07-28T11:45:37.547Z,3588.00
2022-07-28T11:46:32.703Z,3600.00
2022-07-28T11:47:32.689Z,3612.00
2022-07-28T11:48:32.727Z,3540.00
2022-07-28T11:49:32.711Z,3388.00
2022-07-28T11:50:32.670Z,3564.00
2022-07-28T11:51:36.173Z,3512.00
2022-07-28T11:52:32.653Z,3708.00
2022-07-28T11:53:32.623Z,3708.00
2022-07-28T11:54:32.604Z,3784.00
2022-07-28T11:55:55.542Z,3628.00
2022-07-28T11:56:32.578Z,3500.00
2022-07-28T11:57:32.611Z,3536.00
2022-07-28T11:58:32.533Z,3508.00
2022-07-28T11:59:37.244Z,3556.00
2022-07-28T12:00:32.517Z,3656.00
2022-07-28T12:01:32.563Z,3700.00
2022-07-28T12:02:32.596Z,3692.00
2022-07-28T12:03:49.523Z,3704.00
2022-07-28T12:04:32.517Z,3684.00
2022-07-28T12:05:34.358Z,3532.00
2022-07-28T12:06:32.469Z,3572.00
2022-07-28T12:07:32.490Z,3596.00
2022-07-28T12:08:32.472Z,3512.00
2022-07-28T12:09:41.786Z,3588.00
2022-07-28T12:11:32.429Z,3672.00
2022-07-28T12:12:32.402Z,3716.00
2022-07-28T12:13:32.426Z,3676.00
2022-07-28T12:14:36.001Z,3736.00
2022-07-28T12:15:32.365Z,3684.00
2022-07-28T12:16:32.544Z,3768.00
2022-07-28T12:17:32.339Z,3684.00
2022-07-28T12:18:32.322Z,3684.00
2022-07-28T12:19:33.008Z,3564.00
2022-07-28T12:20:32.309Z,3616.00
2022-07-28T12:21:32.386Z,3452.00
2022-07-28T12:22:32.281Z,3232.00
2022-07-28T12:23:44.207Z,3552.00
2022-07-28T12:24:32.279Z,3924.00
2022-07-28T12:25:32.265Z,3824.00
2022-07-28T12:26:32.213Z,3872.00
2022-07-28T12:27:32.360Z,3912.00
2022-07-28T12:28:32.234Z,3648.00
2022-07-28T12:29:35.877Z,3776.00